createdAt,value
2019-03-09T00:00:43.796Z,74.95
2019-03-09T00:03:18.289Z,75.13
2019-03-09T00:05:51.433Z,75.04
2019-03-09T00:08:24.501Z,75.08
2019-03-09T00:10:57.812Z,74.94
2019-03-09T00:13:30.781Z,74.87
2019-03-09T00:16:03.960Z,75.13
2019-03-09T00:18:36.892Z,75.29
2019-03-09T00:21:10.254Z,75.49
2019-03-09T00:24:06.285Z,75.64
2019-03-09T00:26:47.888Z,75.22
2019-03-09T00:29:32.397Z,75.48
2019-03-09T00:32:11.723Z,75.14
2019-03-09T00:34:47.320Z,74.93
2019-03-09T00:37:27.962Z,74.83
2019-03-09T00:40:04.298Z,74.74
2019-03-09T00:42:39.344Z,74.53
2019-03-09T00:45:15.904Z,74.43
2019-03-09T00:47:48.806Z,74.50
2019-03-09T00:50:21.738Z,75.36
2019-03-09T00:52:58.073Z,75.06
2019-03-09T00:55:31.314Z,75.00
2019-03-09T00:58:05.135Z,75.22
2019-03-09T01:00:43.051Z,75.14
2019-03-09T01:03:17.346Z,75.01
2019-03-09T01:05:50.743Z,74.85
2019-03-09T01:08:23.787Z,74.97
2019-03-09T01:10:58.180Z,75.14
2019-03-09T01:13:32.700Z,74.42
2019-03-09T01:16:08.446Z,74.85
2019-03-09T01:18:44.343Z,75.50
2019-03-09T01:21:19.377Z,75.63
2019-03-09T01:23:59.548Z,75.89
2019-03-09T01:26:35.871Z,75.85
2019-03-09T01:29:11.028Z,75.92
2019-03-09T01:31:45.753Z,75.85
2019-03-09T01:34:18.928Z,75.66
2019-03-09T01:36:54.228Z,75.60
2019-03-09T01:39:31.189Z,75.70
2019-03-09T01:42:04.102Z,75.50
2019-03-09T01:44:38.481Z,75.53
2019-03-09T01:47:20.531Z,75.54
2019-03-09T01:49:53.327Z,75.17
2019-03-09T01:52:26.273Z,75.09
2019-03-09T01:55:08.393Z,75.15
2019-03-09T01:57:44.581Z,75.25
2019-03-09T02:00:18.696Z,75.22
2019-03-09T02:02:51.706Z,75.15
2019-03-09T02:05:28.871Z,75.44
2019-03-09T02:08:01.832Z,75.75
2019-03-09T02:10:36.579Z,75.95
2019-03-09T02:13:12.372Z,75.64
2019-03-09T02:15:45.320Z,75.33
2019-03-09T02:18:25.377Z,75.19
2019-03-09T02:21:05.896Z,75.08
2019-03-09T02:23:38.803Z,75.10
2019-03-09T02:26:11.738Z,75.00
2019-03-09T02:28:44.642Z,75.31
2019-03-09T02:31:17.498Z,75.29
2019-03-09T02:33:50.388Z,75.17
2019-03-09T02:36:23.509Z,75.59
2019-03-09T02:39:00.591Z,75.54
2019-03-09T02:41:35.112Z,74.96
2019-03-09T02:44:08.016Z,75.21
2019-03-09T02:46:40.764Z,75.50
2019-03-09T02:49:13.574Z,75.31
2019-03-09T02:51:46.669Z,75.70
2019-03-09T02:54:19.482Z,75.29
2019-03-09T02:56:52.280Z,75.59
2019-03-09T02:59:25.601Z,75.34
2019-03-09T03:02:13.913Z,75.75
2019-03-09T03:04:46.985Z,75.37
2019-03-09T03:07:19.747Z,75.63
2019-03-09T03:09:54.194Z,75.69
2019-03-09T03:12:27.064Z,75.95
2019-03-09T03:15:00.079Z,76.26
2019-03-09T03:17:33.169Z,76.27
2019-03-09T03:20:07.370Z,76.10
2019-03-09T03:22:40.292Z,75.99
2019-03-09T03:25:13.447Z,75.88
2019-03-09T03:27:46.539Z,75.75
2019-03-09T03:30:19.682Z,75.65
2019-03-09T03:32:54.272Z,75.53
2019-03-09T03:35:27.292Z,75.26
2019-03-09T03:38:00.049Z,75.37
2019-03-09T03:40:33.218Z,75.44
2019-03-09T03:43:06.176Z,75.71
2019-03-09T03:45:44.605Z,75.62
2019-03-09T03:48:17.391Z,75.52
2019-03-09T03:50:50.214Z,75.31
2019-03-09T03:53:23.099Z,75.17
2019-03-09T03:55:56.251Z,74.87
2019-03-09T03:58:29.069Z,74.67
2019-03-09T04:01:01.965Z,74.75
2019-03-09T04:03:34.936Z,74.62
2019-03-09T04:06:08.027Z,74.52
2019-03-09T04:08:41.455Z,74.46
2019-03-09T04:11:14.407Z,74.30
2019-03-09T04:13:47.738Z,74.27
2019-03-09T04:16:20.564Z,74.50
2019-03-09T04:18:53.579Z,74.30
2019-03-09T04:21:26.478Z,74.20
2019-03-09T04:23:59.419Z,73.96
2019-03-09T04:26:32.615Z,73.40
2019-03-09T04:29:06.398Z,73.44
2019-03-09T04:31:39.305Z,73.24
2019-03-09T04:34:12.215Z,72.81
2019-03-09T04:36:45.233Z,72.85
2019-03-09T04:39:18.184Z,72.77
2019-03-09T04:41:55.208Z,73.01
2019-03-09T04:44:28.166Z,72.77
2019-03-09T04:47:01.717Z,73.02
2019-03-09T04:49:34.680Z,73.16
2019-03-09T04:52:07.604Z,73.31
2019-03-09T04:54:40.527Z,73.37
2019-03-09T04:57:13.255Z,73.48
2019-03-09T04:59:46.224Z,73.50
2019-03-09T05:02:19.169Z,73.65
2019-03-09T05:04:54.061Z,74.58
2019-03-09T05:07:42.631Z,76.01
2019-03-09T05:10:30.018Z,76.00
2019-03-09T05:13:10.737Z,77.28
2019-03-09T05:15:43.543Z,77.70
2019-03-09T05:18:16.495Z,77.92
2019-03-09T05:20:49.430Z,78.00
2019-03-09T05:23:22.292Z,77.73
2019-03-09T05:25:55.346Z,78.12
2019-03-09T05:28:28.285Z,78.71
2019-03-09T05:31:01.228Z,78.43
2019-03-09T05:33:34.069Z,78.38
2019-03-09T05:36:06.998Z,78.38
2019-03-09T05:38:40.319Z,77.95
2019-03-09T05:41:16.364Z,78.26
2019-03-09T05:43:49.330Z,78.04
2019-03-09T05:46:22.359Z,78.18
2019-03-09T05:48:55.326Z,77.96
2019-03-09T05:51:29.239Z,78.21
2019-03-09T05:54:02.375Z,77.78
2019-03-09T05:56:35.325Z,77.97
2019-03-09T05:59:09.497Z,77.19
2019-03-09T06:01:42.371Z,77.81
2019-03-09T06:04:15.279Z,77.85
2019-03-09T06:06:48.096Z,77.45
2019-03-09T06:09:23.148Z,76.53
2019-03-09T06:11:56.071Z,76.57
2019-03-09T06:14:29.242Z,76.69
2019-03-09T06:17:02.186Z,76.41
2019-03-09T06:19:35.029Z,76.24
2019-03-09T06:22:07.929Z,75.18
2019-03-09T06:24:40.654Z,76.01
2019-03-09T06:27:13.643Z,74.79
2019-03-09T06:29:46.690Z,74.79
2019-03-09T06:33:13.166Z,74.75
2019-03-09T06:36:12.110Z,74.24
2019-03-09T06:38:58.928Z,74.00
2019-03-09T06:42:19.194Z,73.75
2019-03-09T06:44:52.062Z,73.32
2019-03-09T06:47:24.848Z,72.65
2019-03-09T06:49:57.627Z,72.61
2019-03-09T06:52:30.362Z,72.03
2019-03-09T06:55:04.201Z,71.06
2019-03-09T06:57:36.952Z,71.36
2019-03-09T07:00:34.596Z,71.42
2019-03-09T07:03:08.571Z,71.16
2019-03-09T07:05:41.304Z,71.16
2019-03-09T07:08:14.068Z,70.30
2019-03-09T07:10:46.804Z,69.60
2019-03-09T07:13:19.580Z,69.91
2019-03-09T07:15:52.331Z,68.88
2019-03-09T07:18:30.113Z,68.66
2019-03-09T07:21:03.102Z,67.48
2019-03-09T07:23:36.000Z,67.69
2019-03-09T07:26:08.887Z,66.72
2019-03-09T07:28:41.640Z,66.13
2019-03-09T07:31:14.586Z,65.51
2019-03-09T07:33:47.375Z,65.67
2019-03-09T07:36:20.209Z,64.98
2019-03-09T07:38:53.047Z,65.00
2019-03-09T07:41:25.973Z,63.99
2019-03-09T07:43:58.878Z,64.07
2019-03-09T07:46:31.824Z,62.91
2019-03-09T07:49:04.847Z,63.00
2019-03-09T07:51:37.605Z,62.33
2019-03-09T07:54:10.427Z,63.39
2019-03-09T07:56:45.473Z,62.55
2019-03-09T07:59:18.272Z,62.85
2019-03-09T08:01:51.033Z,64.05
2019-03-09T08:04:24.019Z,62.52
2019-03-09T08:06:56.880Z,62.29
2019-03-09T08:09:29.690Z,61.57
2019-03-09T08:12:02.492Z,61.02
2019-03-09T08:14:36.311Z,61.02
2019-03-09T08:17:09.209Z,62.30
2019-03-09T08:19:41.919Z,63.20
2019-03-09T08:22:14.684Z,62.96
2019-03-09T08:24:47.504Z,62.71
2019-03-09T08:27:20.214Z,64.42
2019-03-09T08:29:53.172Z,64.42
2019-03-09T08:32:26.313Z,64.73
2019-03-09T08:34:59.170Z,66.04
2019-03-09T08:37:32.006Z,66.02
2019-03-09T08:40:04.805Z,67.64
2019-03-09T08:42:37.606Z,68.06
2019-03-09T08:45:11.319Z,68.66
2019-03-09T08:47:51.520Z,69.55
2019-03-09T08:50:21.121Z,69.55
2019-03-09T08:52:53.905Z,70.70
2019-03-09T08:55:28.415Z,71.82
2019-03-09T08:58:01.350Z,72.68
2019-03-09T09:00:35.095Z,72.46
2019-03-09T09:03:08.030Z,72.06
2019-03-09T09:05:40.895Z,73.20
2019-03-09T09:08:13.803Z,74.00
2019-03-09T09:10:46.840Z,74.59
2019-03-09T09:13:19.671Z,74.46
2019-03-09T09:15:52.479Z,75.06
2019-03-09T09:18:25.616Z,74.04
2019-03-09T09:20:58.528Z,75.08
2019-03-09T09:23:32.461Z,74.27
2019-03-09T09:26:05.236Z,75.48
2019-03-09T09:28:38.021Z,75.69
2019-03-09T09:31:10.819Z,76.70
2019-03-09T09:33:43.678Z,76.91
2019-03-09T09:36:16.673Z,75.57
2019-03-09T09:38:49.525Z,77.21
2019-03-09T09:41:22.393Z,77.46
2019-03-09T09:43:55.328Z,77.44
2019-03-09T09:46:39.399Z,77.80
2019-03-09T09:49:12.244Z,77.37
2019-03-09T09:51:45.044Z,77.11
2019-03-09T09:54:17.841Z,77.59
2019-03-09T09:56:50.737Z,78.08
2019-03-09T09:59:23.547Z,79.23
2019-03-09T10:02:05.236Z,78.62
2019-03-09T10:04:38.051Z,77.59
2019-03-09T10:07:10.815Z,77.98
2019-03-09T10:09:43.600Z,78.21
2019-03-09T10:12:16.329Z,78.17
2019-03-09T10:14:49.159Z,77.77
2019-03-09T10:17:21.892Z,78.45
2019-03-09T10:19:57.424Z,78.62
2019-03-09T10:22:30.473Z,79.14
2019-03-09T10:25:06.917Z,79.25
2019-03-09T10:27:39.824Z,79.42
2019-03-09T10:30:16.213Z,79.21
2019-03-09T10:32:49.456Z,79.04
2019-03-09T10:35:23.628Z,79.42
2019-03-09T10:37:56.672Z,78.87
2019-03-09T10:40:29.744Z,78.58
2019-03-09T10:43:02.625Z,78.40
2019-03-09T10:45:35.561Z,78.01
2019-03-09T10:48:08.425Z,78.90
2019-03-09T10:50:41.395Z,78.18
2019-03-09T10:53:14.189Z,77.09
2019-03-09T10:55:47.059Z,76.96
2019-03-09T10:58:19.629Z,75.77
2019-03-09T11:00:54.590Z,74.89
2019-03-09T11:03:27.539Z,74.35
2019-03-09T11:06:00.357Z,74.61
2019-03-09T11:08:36.130Z,74.88
2019-03-09T11:11:09.040Z,74.17
2019-03-09T11:13:51.418Z,74.93
2019-03-09T11:16:16.473Z,74.06
2019-03-09T11:18:49.560Z,74.48
2019-03-09T11:21:23.648Z,73.32
2019-03-09T11:23:56.634Z,73.98
2019-03-09T11:26:32.081Z,74.26
2019-03-09T11:29:05.089Z,73.84
2019-03-09T11:31:37.974Z,73.26
2019-03-09T11:34:10.978Z,73.80
2019-03-09T11:36:43.634Z,73.23
2019-03-09T11:39:16.397Z,73.21
2019-03-09T11:41:49.225Z,73.44
2019-03-09T11:44:22.039Z,72.54
2019-03-09T11:46:54.792Z,72.69
2019-03-09T11:49:27.577Z,71.64
2019-03-09T11:52:00.380Z,71.21
2019-03-09T11:54:33.190Z,71.21
2019-03-09T11:57:05.937Z,70.51
2019-03-09T11:59:38.854Z,66.87
2019-03-09T12:02:11.725Z,64.59
2019-03-09T12:04:47.050Z,62.55
2019-03-09T12:07:19.003Z,59.87
2019-03-09T12:09:51.749Z,54.54
2019-03-09T12:12:24.495Z,52.37
2019-03-09T12:14:57.365Z,53.92
2019-03-09T12:17:30.414Z,53.45
2019-03-09T12:20:03.314Z,51.33
2019-03-09T12:22:36.182Z,52.17
2019-03-09T12:25:10.118Z,52.99
2019-03-09T12:27:43.790Z,51.06
2019-03-09T12:30:18.101Z,50.91
2019-03-09T12:32:51.062Z,50.97
2019-03-09T12:35:23.988Z,49.14
2019-03-09T12:37:56.971Z,49.27
2019-03-09T12:40:29.855Z,47.17
2019-03-09T12:43:05.641Z,48.23
2019-03-09T12:45:42.749Z,48.76
2019-03-09T12:48:15.590Z,49.89
2019-03-09T12:50:48.696Z,49.81
2019-03-09T12:53:29.467Z,50.87
2019-03-09T12:56:06.984Z,48.68
2019-03-09T12:58:39.686Z,49.39
2019-03-09T13:01:12.720Z,49.21
2019-03-09T13:03:45.562Z,47.15
2019-03-09T13:06:21.532Z,45.24
2019-03-09T13:08:54.329Z,46.28
2019-03-09T13:11:27.419Z,45.60
2019-03-09T13:14:00.321Z,44.74
2019-03-09T13:16:33.299Z,44.29
2019-03-09T13:19:07.443Z,44.65
2019-03-09T13:21:40.432Z,45.45
2019-03-09T13:24:13.463Z,42.78
2019-03-09T13:26:46.305Z,42.80
2019-03-09T13:29:19.607Z,43.45
2019-03-09T13:31:52.710Z,41.25
2019-03-09T13:34:25.717Z,43.53
2019-03-09T13:36:58.732Z,43.62
2019-03-09T13:39:31.608Z,44.09
2019-03-09T13:42:04.628Z,44.77
2019-03-09T13:44:37.849Z,44.97
2019-03-09T13:47:10.781Z,46.16
2019-03-09T13:49:43.811Z,45.38
2019-03-09T13:52:17.643Z,45.10
2019-03-09T13:54:50.736Z,45.36
2019-03-09T13:57:25.573Z,44.85
2019-03-09T13:59:59.198Z,44.67
2019-03-09T14:02:32.258Z,44.57
2019-03-09T14:05:05.407Z,45.01
2019-03-09T14:07:38.846Z,45.07
2019-03-09T14:10:12.904Z,46.37
2019-03-09T14:12:45.997Z,47.04
2019-03-09T14:15:23.214Z,47.22
2019-03-09T14:17:58.668Z,46.43
2019-03-09T14:20:35.629Z,46.75
2019-03-09T14:23:09.134Z,46.06
2019-03-09T14:25:41.986Z,46.45
2019-03-09T14:28:19.912Z,46.67
2019-03-09T14:31:01.141Z,46.37
2019-03-09T14:33:35.545Z,46.36
2019-03-09T14:36:08.481Z,46.64
2019-03-09T14:38:44.331Z,47.57
2019-03-09T14:41:17.208Z,47.98
2019-03-09T14:43:54.318Z,48.87
2019-03-09T14:46:28.774Z,48.46
2019-03-09T14:49:01.881Z,48.63
2019-03-09T14:51:35.040Z,48.34
2019-03-09T14:54:08.076Z,48.56
2019-03-09T14:56:42.215Z,48.62
2019-03-09T14:59:15.183Z,49.63
2019-03-09T15:02:03.658Z,49.66
2019-03-09T15:04:37.644Z,49.36
2019-03-09T15:07:14.571Z,49.78
2019-03-09T15:09:47.850Z,50.43
2019-03-09T15:12:20.852Z,49.61
2019-03-09T15:14:58.800Z,49.77
2019-03-09T15:17:32.204Z,49.56
2019-03-09T15:20:06.906Z,50.27
2019-03-09T15:22:39.742Z,50.27
2019-03-09T15:25:15.239Z,50.45
2019-03-09T15:27:53.249Z,49.84
2019-03-09T15:30:31.060Z,49.04
2019-03-09T15:33:06.936Z,49.14
2019-03-09T15:35:43.404Z,49.35
2019-03-09T15:38:22.322Z,49.39
2019-03-09T15:41:06.069Z,50.75
2019-03-09T15:43:38.906Z,50.11
2019-03-09T15:46:17.210Z,50.65
2019-03-09T15:48:54.544Z,50.06
2019-03-09T15:51:27.604Z,50.25
2019-03-09T15:54:00.517Z,52.73
2019-03-09T15:56:33.403Z,51.13
2019-03-09T15:59:06.449Z,50.51
2019-03-09T16:01:39.375Z,50.08
2019-03-09T16:04:12.345Z,50.01
2019-03-09T16:06:45.172Z,49.82
2019-03-09T16:09:18.154Z,50.14
2019-03-09T16:11:50.983Z,50.84
2019-03-09T16:14:24.022Z,50.95
2019-03-09T16:16:56.887Z,51.08
2019-03-09T16:19:30.845Z,51.15
2019-03-09T16:22:04.030Z,51.11
2019-03-09T16:24:37.056Z,51.22
2019-03-09T16:27:29.555Z,51.82
2019-03-09T16:30:07.111Z,52.82
2019-03-09T16:32:41.507Z,53.42
2019-03-09T16:35:14.745Z,54.18
2019-03-09T16:37:55.104Z,54.27
2019-03-09T16:41:12.301Z,54.51
2019-03-09T16:43:58.817Z,54.76
2019-03-09T16:46:39.776Z,55.53
2019-03-09T16:49:14.305Z,55.44
2019-03-09T16:51:47.618Z,55.22
2019-03-09T16:54:20.541Z,56.32
2019-03-09T16:56:53.364Z,56.16
2019-03-09T16:59:26.723Z,56.16
2019-03-09T17:01:59.587Z,55.80
2019-03-09T17:04:32.512Z,55.85
2019-03-09T17:07:09.753Z,55.92
2019-03-09T17:09:44.554Z,55.70
2019-03-09T17:12:21.324Z,55.90
2019-03-09T17:14:54.445Z,57.84
2019-03-09T17:17:27.495Z,56.66
2019-03-09T17:20:01.495Z,57.51
2019-03-09T17:22:37.299Z,58.82
2019-03-09T17:25:15.318Z,58.83
2019-03-09T17:27:51.841Z,59.27
2019-03-09T17:30:38.756Z,59.70
2019-03-09T17:33:15.457Z,59.73
2019-03-09T17:35:49.711Z,60.43
2019-03-09T17:38:28.812Z,60.43
2019-03-09T17:41:03.138Z,61.26
2019-03-09T17:43:37.963Z,61.19
2019-03-09T17:46:13.203Z,61.54
2019-03-09T17:48:48.511Z,63.16
2019-03-09T17:51:21.819Z,63.16
2019-03-09T17:53:55.143Z,64.84
2019-03-09T17:56:31.277Z,64.84
2019-03-09T17:59:07.044Z,65.44
2019-03-09T18:01:45.510Z,66.00
2019-03-09T18:04:18.816Z,66.15
2019-03-09T18:06:54.301Z,65.91
2019-03-09T18:09:28.796Z,66.56
2019-03-09T18:12:03.080Z,67.51
2019-03-09T18:14:36.897Z,69.20
2019-03-09T18:17:09.775Z,70.03
2019-03-09T18:19:43.894Z,70.03
2019-03-09T18:22:16.928Z,70.67
2019-03-09T18:24:53.719Z,71.34
2019-03-09T18:27:26.915Z,73.28
2019-03-09T18:30:00.026Z,73.65
2019-03-09T18:32:34.173Z,73.65
2019-03-09T18:35:07.432Z,71.05
2019-03-09T18:37:41.917Z,73.16
2019-03-09T18:40:14.999Z,74.97
2019-03-09T18:42:47.890Z,74.97
2019-03-09T18:45:20.955Z,74.38
2019-03-09T18:47:53.934Z,77.17
2019-03-09T18:50:27.273Z,79.87
2019-03-09T18:53:00.953Z,79.43
2019-03-09T18:55:34.034Z,77.38
2019-03-09T18:58:08.714Z,77.91
2019-03-09T19:00:41.621Z,76.38
2019-03-09T19:03:14.490Z,74.02
2019-03-09T19:05:50.308Z,72.99
2019-03-09T19:08:23.480Z,71.61
2019-03-09T19:10:56.489Z,75.67
2019-03-09T19:13:30.173Z,78.61
2019-03-09T19:16:03.527Z,76.06
2019-03-09T19:18:36.431Z,76.75
2019-03-09T19:21:09.660Z,78.35
2019-03-09T19:23:51.804Z,78.62
2019-03-09T19:26:24.919Z,76.82
2019-03-09T19:28:57.875Z,77.31
2019-03-09T19:31:34.320Z,76.72
2019-03-09T19:34:07.849Z,78.08
2019-03-09T19:36:48.784Z,77.92
2019-03-09T19:39:23.302Z,80.16
2019-03-09T19:42:44.435Z,79.71
2019-03-09T19:45:17.836Z,80.42
2019-03-09T19:47:50.826Z,80.48
2019-03-09T19:50:23.795Z,80.10
2019-03-09T19:52:59.118Z,81.04
2019-03-09T19:55:32.763Z,81.25
2019-03-09T19:58:06.638Z,81.41
2019-03-09T20:00:39.748Z,81.80
2019-03-09T20:03:14.320Z,81.35
2019-03-09T20:05:50.324Z,82.33
2019-03-09T20:08:52.291Z,82.82
2019-03-09T20:11:36.219Z,83.65
2019-03-09T20:14:09.282Z,84.54
2019-03-09T20:16:52.556Z,84.34
2019-03-09T20:19:25.544Z,84.52
2019-03-09T20:21:58.328Z,84.73
2019-03-09T20:24:31.415Z,84.47
2019-03-09T20:27:04.421Z,83.96
2019-03-09T20:29:37.631Z,83.82
2019-03-09T20:32:10.593Z,83.80
2019-03-09T20:34:43.514Z,84.17
2019-03-09T20:37:16.507Z,83.67
2019-03-09T20:39:49.692Z,82.47
2019-03-09T20:42:23.328Z,82.49
2019-03-09T20:44:56.399Z,82.16
2019-03-09T20:47:29.479Z,82.60
2019-03-09T20:50:02.620Z,82.59
2019-03-09T20:52:42.273Z,81.93
2019-03-09T20:55:16.970Z,82.59
2019-03-09T20:57:50.546Z,83.29
2019-03-09T21:00:32.081Z,82.05
2019-03-09T21:03:22.686Z,81.97
2019-03-09T21:06:13.153Z,82.52
2019-03-09T21:08:58.330Z,83.19
2019-03-09T21:11:40.413Z,82.25
2019-03-09T21:14:13.479Z,82.51
2019-03-09T21:16:47.167Z,83.18
2019-03-09T21:19:20.532Z,82.68
2019-03-09T21:21:54.116Z,82.45
2019-03-09T21:24:33.653Z,82.47
2019-03-09T21:27:07.090Z,82.53
2019-03-09T21:29:40.426Z,83.00
2019-03-09T21:32:15.193Z,83.44
2019-03-09T21:34:53.225Z,82.25
2019-03-09T21:37:38.473Z,82.38
2019-03-09T21:40:24.383Z,83.00
2019-03-09T21:43:33.964Z,82.81
2019-03-09T21:46:07.108Z,82.59
2019-03-09T21:48:40.261Z,82.37
2019-03-09T21:54:17.897Z,82.94
2019-03-09T21:57:01.761Z,83.15
2019-03-09T21:59:40.320Z,82.95
2019-03-09T22:02:28.806Z,83.27
2019-03-09T22:05:20.013Z,82.85
2019-03-09T22:08:03.280Z,82.85
2019-03-09T22:10:37.668Z,83.33
2019-03-09T22:13:12.776Z,82.83
2019-03-09T22:15:46.617Z,82.74
2019-03-09T22:18:25.356Z,82.95
2019-03-09T22:21:00.014Z,82.71
2019-03-09T22:23:43.551Z,82.37
2019-03-09T22:26:08.838Z,82.20
2019-03-09T22:28:42.181Z,82.67
2019-03-09T22:31:18.977Z,82.52
2019-03-09T22:33:53.504Z,82.50
2019-03-09T22:36:27.961Z,82.81
2019-03-09T22:39:05.097Z,82.92
2019-03-09T22:41:49.883Z,83.09
2019-03-09T22:44:27.473Z,83.26
2019-03-09T22:47:11.944Z,82.95
2019-03-09T22:49:43.743Z,82.97
2019-03-09T22:52:22.454Z,82.46
2019-03-09T22:55:07.403Z,81.49
2019-03-09T22:57:42.312Z,80.33
2019-03-09T23:00:22.538Z,80.11
2019-03-09T23:02:57.584Z,79.88
2019-03-09T23:05:31.270Z,79.78
2019-03-09T23:08:05.051Z,80.67
2019-03-09T23:10:39.253Z,80.71
2019-03-09T23:13:13.013Z,80.54
2019-03-09T23:15:47.092Z,80.56
2019-03-09T23:18:20.274Z,80.21
2019-03-09T23:20:53.804Z,80.59
2019-03-09T23:23:28.564Z,80.15
2019-03-09T23:26:10.202Z,79.49
2019-03-09T23:29:10.520Z,78.64
2019-03-09T23:31:44.787Z,78.45
2019-03-09T23:34:18.654Z,75.08
2019-03-09T23:36:59.770Z,72.69
2019-03-09T23:39:37.468Z,71.23
2019-03-09T23:42:14.157Z,70.88
2019-03-09T23:44:56.287Z,71.08
2019-03-09T23:47:33.330Z,70.39
2019-03-09T23:50:12.923Z,70.84
2019-03-09T23:52:55.321Z,71.35
2019-03-09T23:55:29.385Z,70.76
2019-03-09T23:58:06.309Z,69.15
